X  Close Metar Aviation Weather Data     EBBR Brussels Airport
Temperature
23°C Temperature
19°C Dewpoint
78% Humidity



Wind
14 KM/H
9 MPH
4 M/S
8 KTS



100°
East
Current Conditions

Light Showers, Rain Light Showers, Rain
Pressure 1016.92 (hPa) - 30.03 (inHg)
Visibility 6.2 (mile) - 10 (km)
Airport
Airport-code EBBR

Location: Brussels Airport
Distance: 14 (km)

Metar:
EBBR 091020Z 10008KT 9999 -SHRA FEW017CB 23/19 Q1017 NOSIG

Time: 2020-08-09 12:20 CEST